sensor_id;sensor_type;location;lat;lon;timestamp;pressure;altitude;pressure_sealevel;temperature;humidity
84022;BME280;74108;48.636;9.492;2023-11-19T00:00:39;97793.88;;;8.88;90.67
84022;BME280;74108;48.636;9.492;2023-11-19T00:03:05;97781.84;;;8.87;90.72
84022;BME280;74108;48.636;9.492;2023-11-19T00:05:31;97772.44;;;8.86;90.85
84022;BME280;74108;48.636;9.492;2023-11-19T00:07:56;97775.09;;;8.91;90.97
84022;BME280;74108;48.636;9.492;2023-11-19T00:10:24;97792.22;;;8.99;90.55
84022;BME280;74108;48.636;9.492;2023-11-19T00:12:49;97773.53;;;8.90;91.48
84022;BME280;74108;48.636;9.492;2023-11-19T00:15:16;97787.16;;;8.92;91.14
84022;BME280;74108;48.636;9.492;2023-11-19T00:17:45;97798.06;;;8.89;91.09
84022;BME280;74108;48.636;9.492;2023-11-19T00:20:14;97792.84;;;8.89;91.76
84022;BME280;74108;48.636;9.492;2023-11-19T00:22:41;97788.09;;;8.86;91.57
84022;BME280;74108;48.636;9.492;2023-11-19T00:25:08;97792.69;;;8.79;92.09
84022;BME280;74108;48.636;9.492;2023-11-19T00:27:33;97781.75;;;8.82;91.84
84022;BME280;74108;48.636;9.492;2023-11-19T00:29:59;97770.50;;;8.82;92.41
84022;BME280;74108;48.636;9.492;2023-11-19T00:32:24;97771.78;;;8.96;91.61
84022;BME280;74108;48.636;9.492;2023-11-19T00:34:49;97767.81;;;8.93;91.78
84022;BME280;74108;48.636;9.492;2023-11-19T00:37:16;97765.91;;;8.89;92.42
84022;BME280;74108;48.636;9.492;2023-11-19T00:39:42;97764.75;;;8.96;92.09
84022;BME280;74108;48.636;9.492;2023-11-19T00:42:09;97766.97;;;9.04;92.10
84022;BME280;74108;48.636;9.492;2023-11-19T00:44:35;97765.63;;;9.02;92.49
84022;BME280;74108;48.636;9.492;2023-11-19T00:47:00;97776.16;;;9.07;92.49
84022;BME280;74108;48.636;9.492;2023-11-19T00:49:26;97764.75;;;9.13;91.55
84022;BME280;74108;48.636;9.492;2023-11-19T00:51:51;97761.75;;;9.04;92.17
84022;BME280;74108;48.636;9.492;2023-11-19T00:54:16;97766.00;;;9.10;92.38
84022;BME280;74108;48.636;9.492;2023-11-19T00:56:42;97755.81;;;9.09;91.86
84022;BME280;74108;48.636;9.492;2023-11-19T00:59:08;97751.13;;;9.11;92.26
84022;BME280;74108;48.636;9.492;2023-11-19T01:01:33;97752.66;;;9.07;92.70
84022;BME280;74108;48.636;9.492;2023-11-19T01:03:59;97744.84;;;9.12;92.55
84022;BME280;74108;48.636;9.492;2023-11-19T01:06:31;97734.41;;;9.12;93.03
84022;BME280;74108;48.636;9.492;2023-11-19T01:08:58;97733.56;;;9.23;92.52
84022;BME280;74108;48.636;9.492;2023-11-19T01:11:24;97739.63;;;9.29;92.13
84022;BME280;74108;48.636;9.492;2023-11-19T01:13:50;97732.97;;;9.38;92.17
84022;BME280;74108;48.636;9.492;2023-11-19T01:16:15;97724.91;;;9.23;92.72
84022;BME280;74108;48.636;9.492;2023-11-19T01:18:41;97715.63;;;9.32;92.00
84022;BME280;74108;48.636;9.492;2023-11-19T01:21:06;97710.06;;;9.28;93.16
84022;BME280;74108;48.636;9.492;2023-11-19T01:23:32;97715.06;;;9.30;92.60
84022;BME280;74108;48.636;9.492;2023-11-19T01:26:00;97713.81;;;9.32;92.60
84022;BME280;74108;48.636;9.492;2023-11-19T01:28:26;97701.81;;;9.36;92.07
84022;BME280;74108;48.636;9.492;2023-11-19T01:30:56;97710.16;;;9.33;92.23
84022;BME280;74108;48.636;9.492;2023-11-19T01:33:21;97703.91;;;9.34;92.46
84022;BME280;74108;48.636;9.492;2023-11-19T01:35:46;97697.88;;;9.34;93.02
84022;BME280;74108;48.636;9.492;2023-11-19T01:38:12;97684.78;;;9.34;93.00
84022;BME280;74108;48.636;9.492;2023-11-19T01:40:37;97680.19;;;9.41;92.46
84022;BME280;74108;48.636;9.492;2023-11-19T01:43:03;97680.72;;;9.43;92.41
84022;BME280;74108;48.636;9.492;2023-11-19T01:45:30;97669.41;;;9.37;92.33
84022;BME280;74108;48.636;9.492;2023-11-19T01:47:56;97666.50;;;9.34;93.15
84022;BME280;74108;48.636;9.492;2023-11-19T01:50:23;97655.94;;;9.45;94.20
84022;BME280;74108;48.636;9.492;2023-11-19T01:52:54;97655.94;;;9.67;93.69
84022;BME280;74108;48.636;9.492;2023-11-19T01:55:24;97657.44;;;9.84;93.94
84022;BME280;74108;48.636;9.492;2023-11-19T01:57:49;97663.34;;;9.97;93.52
84022;BME280;74108;48.636;9.492;2023-11-19T02:00:16;97654.50;;;10.03;94.04
84022;BME280;74108;48.636;9.492;2023-11-19T02:02:44;97674.34;;;10.20;92.81
84022;BME280;74108;48.636;9.492;2023-11-19T02:05:11;97674.59;;;10.19;92.90
84022;BME280;74108;48.636;9.492;2023-11-19T02:07:37;97668.31;;;10.20;92.94
84022;BME280;74108;48.636;9.492;2023-11-19T02:10:03;97672.63;;;10.31;93.41
84022;BME280;74108;48.636;9.492;2023-11-19T02:12:31;97670.06;;;10.36;93.73
84022;BME280;74108;48.636;9.492;2023-11-19T02:14:59;97669.25;;;10.35;93.64
84022;BME280;74108;48.636;9.492;2023-11-19T02:17:26;97666.03;;;10.28;93.39
84022;BME280;74108;48.636;9.492;2023-11-19T02:19:52;97665.03;;;10.34;92.86
84022;BME280;74108;48.636;9.492;2023-11-19T02:22:18;97649.38;;;10.39;93.46
84022;BME280;74108;48.636;9.492;2023-11-19T02:24:44;97655.69;;;10.43;93.08
84022;BME280;74108;48.636;9.492;2023-11-19T02:27:17;97658.63;;;10.47;93.00
84022;BME280;74108;48.636;9.492;2023-11-19T02:29:47;97650.19;;;10.40;91.89
84022;BME280;74108;48.636;9.492;2023-11-19T02:32:15;97652.47;;;10.31;92.97
84022;BME280;74108;48.636;9.492;2023-11-19T02:34:41;97639.69;;;10.40;92.57
84022;BME280;74108;48.636;9.492;2023-11-19T02:37:06;97648.53;;;10.34;92.12
84022;BME280;74108;48.636;9.492;2023-11-19T02:39:31;97645.97;;;10.39;92.22
84022;BME280;74108;48.636;9.492;2023-11-19T02:41:57;97649.44;;;10.44;92.50
84022;BME280;74108;48.636;9.492;2023-11-19T02:44:22;97640.94;;;10.32;91.85
84022;BME280;74108;48.636;9.492;2023-11-19T02:46:48;97631.75;;;10.30;92.83
84022;BME280;74108;48.636;9.492;2023-11-19T02:49:14;97631.00;;;10.34;93.86
84022;BME280;74108;48.636;9.492;2023-11-19T02:51:40;97638.94;;;10.44;92.76
84022;BME280;74108;48.636;9.492;2023-11-19T02:54:05;97639.75;;;10.45;93.18
84022;BME280;74108;48.636;9.492;2023-11-19T02:56:31;97647.13;;;10.53;92.69
84022;BME280;74108;48.636;9.492;2023-11-19T02:59:00;97648.94;;;10.47;92.79
84022;BME280;74108;48.636;9.492;2023-11-19T03:01:33;97641.81;;;10.43;93.51
84022;BME280;74108;48.636;9.492;2023-11-19T03:04:01;97649.22;;;10.51;93.33
84022;BME280;74108;48.636;9.492;2023-11-19T03:06:27;97655.31;;;10.56;93.06
84022;BME280;74108;48.636;9.492;2023-11-19T03:08:54;97664.78;;;10.63;92.76
84022;BME280;74108;48.636;9.492;2023-11-19T03:11:20;97651.88;;;10.56;92.88
84022;BME280;74108;48.636;9.492;2023-11-19T03:13:46;97662.41;;;10.61;92.68
84022;BME280;74108;48.636;9.492;2023-11-19T03:16:12;97649.81;;;10.58;92.79
84022;BME280;74108;48.636;9.492;2023-11-19T03:18:38;97662.03;;;10.47;93.24
84022;BME280;74108;48.636;9.492;2023-11-19T03:21:07;97663.81;;;10.42;93.33
84022;BME280;74108;48.636;9.492;2023-11-19T03:23:36;97664.16;;;10.50;93.42
84022;BME280;74108;48.636;9.492;2023-11-19T03:26:02;97665.94;;;10.45;94.35
84022;BME280;74108;48.636;9.492;2023-11-19T03:28:31;97674.88;;;10.49;93.60
84022;BME280;74108;48.636;9.492;2023-11-19T03:30:56;97668.34;;;10.51;93.16
84022;BME280;74108;48.636;9.492;2023-11-19T03:33:22;97669.34;;;10.45;93.31
84022;BME280;74108;48.636;9.492;2023-11-19T03:35:47;97666.75;;;10.50;93.11
84022;BME280;74108;48.636;9.492;2023-11-19T03:38:12;97675.16;;;10.52;93.26
84022;BME280;74108;48.636;9.492;2023-11-19T03:40:39;97666.53;;;10.52;93.24
84022;BME280;74108;48.636;9.492;2023-11-19T03:43:05;97672.81;;;10.51;92.99
84022;BME280;74108;48.636;9.492;2023-11-19T03:45:31;97672.25;;;10.49;93.25
84022;BME280;74108;48.636;9.492;2023-11-19T03:47:56;97666.53;;;10.52;93.24
84022;BME280;74108;48.636;9.492;2023-11-19T03:50:22;97669.97;;;10.57;93.79
84022;BME280;74108;48.636;9.492;2023-11-19T03:52:47;97662.66;;;10.59;92.96
84022;BME280;74108;48.636;9.492;2023-11-19T03:55:13;97667.06;;;10.54;93.54
84022;BME280;74108;48.636;9.492;2023-11-19T03:57:39;97664.72;;;10.57;93.92
84022;BME280;74108;48.636;9.492;2023-11-19T04:00:05;97660.81;;;10.60;93.55
84022;BME280;74108;48.636;9.492;2023-11-19T04:02:35;97652.22;;;10.65;93.31
84022;BME280;74108;48.636;9.492;2023-11-19T04:05:01;97644.94;;;10.72;93.29
84022;BME280;74108;48.636;9.492;2023-11-19T04:07:28;97655.94;;;10.74;92.61
84022;BME280;74108;48.636;9.492;2023-11-19T04:09:53;97663.81;;;10.74;93.24
84022;BME280;74108;48.636;9.492;2023-11-19T04:12:18;97660.94;;;10.75;92.91
84022;BME280;74108;48.636;9.492;2023-11-19T04:14:44;97657.25;;;10.71;93.41
84022;BME280;74108;48.636;9.492;2023-11-19T04:17:10;97651.47;;;10.69;93.50
84022;BME280;74108;48.636;9.492;2023-11-19T04:19:35;97634.44;;;10.72;93.12
84022;BME280;74108;48.636;9.492;2023-11-19T04:22:01;97640.75;;;10.76;93.05
84022;BME280;74108;48.636;9.492;2023-11-19T04:24:27;97637.16;;;10.82;93.14
84022;BME280;74108;48.636;9.492;2023-11-19T04:26:53;97631.34;;;10.75;92.93
84022;BME280;74108;48.636;9.492;2023-11-19T04:29:19;97639.03;;;10.86;92.73
84022;BME280;74108;48.636;9.492;2023-11-19T04:31:45;97656.84;;;10.84;93.03
84022;BME280;74108;48.636;9.492;2023-11-19T04:34:12;97646.03;;;10.81;93.54
84022;BME280;74108;48.636;9.492;2023-11-19T04:36:38;97636.09;;;10.83;92.34
84022;BME280;74108;48.636;9.492;2023-11-19T04:39:05;97655.06;;;10.95;92.95
84022;BME280;74108;48.636;9.492;2023-11-19T04:41:51;97645.59;;;10.94;92.43
84022;BME280;74108;48.636;9.492;2023-11-19T04:44:20;97642.22;;;10.98;92.00
84022;BME280;74108;48.636;9.492;2023-11-19T04:46:46;97642.97;;;10.89;92.66
84022;BME280;74108;48.636;9.492;2023-11-19T04:49:13;97659.31;;;11.06;92.12
84022;BME280;74108;48.636;9.492;2023-11-19T04:51:43;97659.91;;;11.13;91.60
84022;BME280;74108;48.636;9.492;2023-11-19T04:54:09;97653.34;;;11.15;91.37
84022;BME280;74108;48.636;9.492;2023-11-19T04:56:36;97653.34;;;11.15;90.90
84022;BME280;74108;48.636;9.492;2023-11-19T04:59:02;97647.88;;;11.22;91.14
84022;BME280;74108;48.636;9.492;2023-11-19T05:01:28;97637.63;;;11.15;91.11
84022;BME280;74108;48.636;9.492;2023-11-19T05:03:56;97647.84;;;11.17;91.77
84022;BME280;74108;48.636;9.492;2023-11-19T05:06:26;97647.88;;;11.22;90.73
84022;BME280;74108;48.636;9.492;2023-11-19T05:08:52;97652.59;;;11.20;91.56
84022;BME280;74108;48.636;9.492;2023-11-19T05:11:17;97656.28;;;11.24;91.84
84022;BME280;74108;48.636;9.492;2023-11-19T05:13:44;97644.72;;;11.20;91.29
84022;BME280;74108;48.636;9.492;2023-11-19T05:16:11;97642.66;;;11.27;90.99
84022;BME280;74108;48.636;9.492;2023-11-19T05:18:40;97646.88;;;11.28;90.52
84022;BME280;74108;48.636;9.492;2023-11-19T05:21:06;97638.78;;;11.35;90.26
84022;BME280;74108;48.636;9.492;2023-11-19T05:23:32;97641.41;;;11.40;90.23
84022;BME280;74108;48.636;9.492;2023-11-19T05:25:59;97642.44;;;11.34;91.00
84022;BME280;74108;48.636;9.492;2023-11-19T05:28:25;97639.31;;;11.37;90.38
84022;BME280;74108;48.636;9.492;2023-11-19T05:30:51;97627.25;;;11.41;91.03
84022;BME280;74108;48.636;9.492;2023-11-19T05:33:16;97637.75;;;11.41;89.90
84022;BME280;74108;48.636;9.492;2023-11-19T05:35:42;97644.34;;;11.48;90.22
84022;BME280;74108;48.636;9.492;2023-11-19T05:38:07;97645.16;;;11.49;89.80
84022;BME280;74108;48.636;9.492;2023-11-19T05:40:34;97646.22;;;11.53;90.12
84022;BME280;74108;48.636;9.492;2023-11-19T05:43:00;97645.69;;;11.51;89.55
84022;BME280;74108;48.636;9.492;2023-11-19T05:45:25;97656.19;;;11.56;89.75
84022;BME280;74108;48.636;9.492;2023-11-19T05:47:51;97648.06;;;11.57;89.20
84022;BME280;74108;48.636;9.492;2023-11-19T05:50:18;97661.44;;;11.56;90.13
84022;BME280;74108;48.636;9.492;2023-11-19T05:52:43;97665.16;;;11.60;90.09
84022;BME280;74108;48.636;9.492;2023-11-19T05:55:09;97654.34;;;11.56;89.89
84022;BME280;74108;48.636;9.492;2023-11-19T05:57:38;97656.47;;;11.59;89.90
84022;BME280;74108;48.636;9.492;2023-11-19T06:00:04;97653.38;;;11.67;89.73
84022;BME280;74108;48.636;9.492;2023-11-19T06:02:34;97650.44;;;11.64;89.00
84022;BME280;74108;48.636;9.492;2023-11-19T06:05:00;97667.78;;;11.65;89.35
84022;BME280;74108;48.636;9.492;2023-11-19T06:07:25;97663.84;;;11.62;89.61
84022;BME280;74108;48.636;9.492;2023-11-19T06:09:50;97669.34;;;11.66;88.75
84022;BME280;74108;48.636;9.492;2023-11-19T06:12:17;97673.88;;;11.70;89.39
84022;BME280;74108;48.636;9.492;2023-11-19T06:14:42;97670.44;;;11.70;89.96
84022;BME280;74108;48.636;9.492;2023-11-19T06:17:07;97673.88;;;11.70;88.94
84022;BME280;74108;48.636;9.492;2023-11-19T06:19:34;97676.53;;;11.75;89.75
84022;BME280;74108;48.636;9.492;2023-11-19T06:21:59;97673.91;;;11.80;89.01
84022;BME280;74108;48.636;9.492;2023-11-19T06:24:25;97668.91;;;11.74;89.18
84022;BME280;74108;48.636;9.492;2023-11-19T06:26:50;97680.19;;;11.74;89.15
84022;BME280;74108;48.636;9.492;2023-11-19T06:29:15;97673.38;;;11.83;89.03
84022;BME280;74108;48.636;9.492;2023-11-19T06:31:44;97677.09;;;11.87;88.36
84022;BME280;74108;48.636;9.492;2023-11-19T06:34:10;97672.09;;;11.91;88.47
84022;BME280;74108;48.636;9.492;2023-11-19T06:36:36;97663.97;;;11.87;89.68
84022;BME280;74108;48.636;9.492;2023-11-19T06:39:01;97669.19;;;11.82;90.30
84022;BME280;74108;48.636;9.492;2023-11-19T06:41:27;97666.53;;;11.77;90.83
84022;BME280;74108;48.636;9.492;2023-11-19T06:43:54;97677.31;;;11.76;90.77
84022;BME280;74108;48.636;9.492;2023-11-19T06:46:19;97677.50;;;11.64;92.32
84022;BME280;74108;48.636;9.492;2023-11-19T06:48:45;97685.38;;;11.64;92.35
84022;BME280;74108;48.636;9.492;2023-11-19T06:51:11;97685.34;;;11.59;92.22
84022;BME280;74108;48.636;9.492;2023-11-19T06:53:37;97686.69;;;11.67;92.01
84022;BME280;74108;48.636;9.492;2023-11-19T06:56:03;97693.06;;;11.76;92.29
84022;BME280;74108;48.636;9.492;2023-11-19T06:58:35;97694.38;;;11.73;92.08
84022;BME280;74108;48.636;9.492;2023-11-19T07:01:00;97704.06;;;11.73;91.72
84022;BME280;74108;48.636;9.492;2023-11-19T07:03:26;97696.47;;;11.71;91.82
84022;BME280;74108;48.636;9.492;2023-11-19T07:05:51;97698.06;;;11.77;91.95
84022;BME280;74108;48.636;9.492;2023-11-19T07:08:17;97689.38;;;11.77;90.77
84022;BME280;74108;48.636;9.492;2023-11-19T07:10:42;97695.44;;;11.82;91.11
84022;BME280;74108;48.636;9.492;2023-11-19T07:13:07;97690.72;;;11.84;91.21
84022;BME280;74108;48.636;9.492;2023-11-19T07:15:33;97697.84;;;11.89;90.74
84022;BME280;74108;48.636;9.492;2023-11-19T07:17:58;97698.88;;;11.83;90.83
84022;BME280;74108;48.636;9.492;2023-11-19T07:20:25;97697.63;;;12.01;89.86
84022;BME280;74108;48.636;9.492;2023-11-19T07:22:53;97701.56;;;12.03;89.75
84022;BME280;74108;48.636;9.492;2023-11-19T07:25:20;97700.25;;;12.01;89.84
84022;BME280;74108;48.636;9.492;2023-11-19T07:27:45;97698.94;;;12.03;89.70
84022;BME280;74108;48.636;9.492;2023-11-19T07:30:13;97707.88;;;12.07;89.23
84022;BME280;74108;48.636;9.492;2023-11-19T07:32:39;97709.72;;;12.07;89.84
84022;BME280;74108;48.636;9.492;2023-11-19T07:35:04;97712.34;;;12.07;89.67
84022;BME280;74108;48.636;9.492;2023-11-19T07:37:31;97707.88;;;12.07;89.83
84022;BME280;74108;48.636;9.492;2023-11-19T07:39:56;97716.59;;;12.18;89.26
84022;BME280;74108;48.636;9.492;2023-11-19T07:42:21;97714.75;;;12.23;88.45
84022;BME280;74108;48.636;9.492;2023-11-19T07:44:48;97702.13;;;12.20;88.22
84022;BME280;74108;48.636;9.492;2023-11-19T07:47:13;97711.34;;;12.23;88.71
84022;BME280;74108;48.636;9.492;2023-11-19T07:49:38;97700.84;;;12.28;87.86
84022;BME280;74108;48.636;9.492;2023-11-19T07:52:04;97724.25;;;12.29;87.73
84022;BME280;74108;48.636;9.492;2023-11-19T07:54:29;97714.78;;;12.33;87.53
84022;BME280;74108;48.636;9.492;2023-11-19T07:56:55;97729.75;;;12.33;88.48
84022;BME280;74108;48.636;9.492;2023-11-19T07:59:21;97722.66;;;12.28;89.25
84022;BME280;74108;48.636;9.492;2023-11-19T08:01:46;97723.16;;;12.25;89.24
84022;BME280;74108;48.636;9.492;2023-11-19T08:04:12;97718.19;;;12.24;89.51
84022;BME280;74108;48.636;9.492;2023-11-19T08:06:37;97725.78;;;12.25;88.46
84022;BME280;74108;48.636;9.492;2023-11-19T08:09:03;97727.41;;;12.31;88.75
84022;BME280;74108;48.636;9.492;2023-11-19T08:11:28;97715.84;;;12.37;88.45
84022;BME280;74108;48.636;9.492;2023-11-19T08:13:54;97716.66;;;12.38;87.74
84022;BME280;74108;48.636;9.492;2023-11-19T08:16:19;97718.22;;;12.44;87.53
84022;BME280;74108;48.636;9.492;2023-11-19T08:18:44;97720.06;;;12.48;86.78
84022;BME280;74108;48.636;9.492;2023-11-19T08:21:10;97713.53;;;12.61;86.79
84022;BME280;74108;48.636;9.492;2023-11-19T08:23:36;97704.56;;;12.62;86.21
84022;BME280;74108;48.636;9.492;2023-11-19T08:26:02;97701.16;;;12.56;86.02
84022;BME280;74108;48.636;9.492;2023-11-19T08:28:27;97706.41;;;12.66;86.05
84022;BME280;74108;48.636;9.492;2023-11-19T08:30:53;97708.81;;;12.73;85.59
84022;BME280;74108;48.636;9.492;2023-11-19T08:33:18;97713.28;;;12.78;84.89
84022;BME280;74108;48.636;9.492;2023-11-19T08:35:44;97705.38;;;12.88;85.11
84022;BME280;74108;48.636;9.492;2023-11-19T08:38:10;97711.44;;;12.93;85.02
84022;BME280;74108;48.636;9.492;2023-11-19T08:40:35;97718.28;;;12.99;84.93
84022;BME280;74108;48.636;9.492;2023-11-19T08:43:01;97707.22;;;13.02;84.54
84022;BME280;74108;48.636;9.492;2023-11-19T08:45:26;97709.59;;;13.24;84.51
84022;BME280;74108;48.636;9.492;2023-11-19T08:47:51;97703.25;;;13.40;83.56
84022;BME280;74108;48.636;9.492;2023-11-19T08:50:17;97700.22;;;13.92;81.83
84022;BME280;74108;48.636;9.492;2023-11-19T08:52:42;97705.66;;;14.16;80.60
84022;BME280;74108;48.636;9.492;2023-11-19T08:55:08;97715.47;;;14.54;79.28
84022;BME280;74108;48.636;9.492;2023-11-19T08:57:40;97719.56;;;14.70;78.70
84022;BME280;74108;48.636;9.492;2023-11-19T09:00:06;97717.09;;;14.84;77.90
84022;BME280;74108;48.636;9.492;2023-11-19T09:02:38;97712.13;;;14.82;78.10
84022;BME280;74108;48.636;9.492;2023-11-19T09:05:04;97706.72;;;14.58;77.70
84022;BME280;74108;48.636;9.492;2023-11-19T09:07:31;97712.63;;;14.45;78.63
84022;BME280;74108;48.636;9.492;2023-11-19T09:09:56;97719.09;;;14.63;77.80
84022;BME280;74108;48.636;9.492;2023-11-19T09:12:22;97710.91;;;14.64;77.05
84022;BME280;74108;48.636;9.492;2023-11-19T09:14:47;97715.66;;;14.62;77.40
84022;BME280;74108;48.636;9.492;2023-11-19T09:17:14;97719.09;;;14.63;76.79
84022;BME280;74108;48.636;9.492;2023-11-19T09:19:40;97719.97;;;14.48;77.07
84022;BME280;74108;48.636;9.492;2023-11-19T09:22:05;97707.16;;;14.75;76.00
84022;BME280;74108;48.636;9.492;2023-11-19T09:24:31;97736.34;;;15.18;76.93
84022;BME280;74108;48.636;9.492;2023-11-19T09:26:56;97732.59;;;15.58;75.20
84022;BME280;74108;48.636;9.492;2023-11-19T09:29:22;97730.25;;;15.56;75.33
84022;BME280;74108;48.636;9.492;2023-11-19T09:31:48;97719.56;;;15.37;74.86
84022;BME280;74108;48.636;9.492;2023-11-19T09:34:13;97732.34;;;15.25;76.10
84022;BME280;74108;48.636;9.492;2023-11-19T09:36:38;97729.88;;;15.34;74.95
84022;BME280;74108;48.636;9.492;2023-11-19T09:39:09;97727.84;;;15.55;73.72
84022;BME280;74108;48.636;9.492;2023-11-19T09:41:34;97728.03;;;15.34;74.26
84022;BME280;74108;48.636;9.492;2023-11-19T09:44:00;97740.16;;;15.07;76.35
84022;BME280;74108;48.636;9.492;2023-11-19T09:46:26;97737.94;;;14.85;75.53
84022;BME280;74108;48.636;9.492;2023-11-19T09:48:55;97736.19;;;14.70;76.30
84022;BME280;74108;48.636;9.492;2023-11-19T09:51:21;97737.00;;;14.71;76.50
84022;BME280;74108;48.636;9.492;2023-11-19T09:53:47;97741.66;;;14.84;75.75
84022;BME280;74108;48.636;9.492;2023-11-19T09:56:14;97733.81;;;14.69;76.79
84022;BME280;74108;48.636;9.492;2023-11-19T09:58:39;97730.44;;;14.63;76.46
84022;BME280;74108;48.636;9.492;2023-11-19T10:01:05;97737.56;;;14.63;76.06
84022;BME280;74108;48.636;9.492;2023-11-19T10:03:35;97746.28;;;14.97;76.48
84022;BME280;74108;48.636;9.492;2023-11-19T10:06:04;97727.16;;;15.10;75.60
84022;BME280;74108;48.636;9.492;2023-11-19T10:08:31;97723.06;;;14.94;76.27
84022;BME280;74108;48.636;9.492;2023-11-19T10:10:57;97723.75;;;14.76;76.32
84022;BME280;74108;48.636;9.492;2023-11-19T10:13:28;97730.97;;;14.60;76.65
84022;BME280;74108;48.636;9.492;2023-11-19T10:15:55;97713.88;;;14.53;76.72
84022;BME280;74108;48.636;9.492;2023-11-19T10:18:24;97723.31;;;14.64;76.20
84022;BME280;74108;48.636;9.492;2023-11-19T10:20:50;97716.63;;;14.76;76.69
84022;BME280;74108;48.636;9.492;2023-11-19T10:23:15;97712.91;;;14.83;75.27
84022;BME280;74108;48.636;9.492;2023-11-19T10:25:41;97714.44;;;14.89;75.61
84022;BME280;74108;48.636;9.492;2023-11-19T10:28:06;97719.38;;;14.95;75.50
84022;BME280;74108;48.636;9.492;2023-11-19T10:30:31;97715.22;;;14.89;75.66
84022;BME280;74108;48.636;9.492;2023-11-19T10:33:05;97706.25;;;14.85;74.65
84022;BME280;74108;48.636;9.492;2023-11-19T10:35:32;97708.34;;;14.88;75.50
84022;BME280;74108;48.636;9.492;2023-11-19T10:38:14;97703.44;;;14.76;75.38
84022;BME280;74108;48.636;9.492;2023-11-19T10:40:42;97702.50;;;14.96;75.50
84022;BME280;74108;48.636;9.492;2023-11-19T10:43:08;97700.00;;;15.10;74.89
84022;BME280;74108;48.636;9.492;2023-11-19T10:45:38;97697.03;;;15.45;74.37
84022;BME280;74108;48.636;9.492;2023-11-19T10:48:04;97698.66;;;15.41;74.53
84022;BME280;74108;48.636;9.492;2023-11-19T10:50:35;97691.56;;;15.36;73.57
84022;BME280;74108;48.636;9.492;2023-11-19T10:53:02;97691.16;;;15.53;72.94
84022;BME280;74108;48.636;9.492;2023-11-19T10:55:35;97694.50;;;15.35;73.74
84022;BME280;74108;48.636;9.492;2023-11-19T10:58:05;97702.22;;;15.26;73.45
84022;BME280;74108;48.636;9.492;2023-11-19T11:00:47;97689.44;;;15.38;73.54
84022;BME280;74108;48.636;9.492;2023-11-19T11:03:18;97681.56;;;15.62;73.16
84022;BME280;74108;48.636;9.492;2023-11-19T11:05:50;97675.25;;;16.00;72.46
84022;BME280;74108;48.636;9.492;2023-11-19T11:08:16;97672.34;;;16.39;70.88
84022;BME280;74108;48.636;9.492;2023-11-19T11:10:55;97680.16;;;16.49;70.84
84022;BME280;74108;48.636;9.492;2023-11-19T11:13:26;97677.75;;;16.34;70.30
84022;BME280;74108;48.636;9.492;2023-11-19T11:15:55;97671.28;;;16.03;71.20
84022;BME280;74108;48.636;9.492;2023-11-19T11:18:21;97672.66;;;16.19;71.19
84022;BME280;74108;48.636;9.492;2023-11-19T11:20:49;97663.44;;;16.54;69.73
84022;BME280;74108;48.636;9.492;2023-11-19T11:28:52;97670.16;;;16.09;69.62
84022;BME280;74108;48.636;9.492;2023-11-19T11:31:45;97667.19;;;15.92;71.48
84022;BME280;74108;48.636;9.492;2023-11-19T11:39:13;97671.09;;;15.52;71.19
84022;BME280;74108;48.636;9.492;2023-11-19T11:41:40;97678.31;;;15.41;72.30
84022;BME280;74108;48.636;9.492;2023-11-19T11:44:05;97680.44;;;15.39;72.71
84022;BME280;74108;48.636;9.492;2023-11-19T11:49:03;97684.09;;;15.43;72.60
84022;BME280;74108;48.636;9.492;2023-11-19T11:59:51;97681.03;;;15.31;72.58
84022;BME280;74108;48.636;9.492;2023-11-19T12:02:19;97680.66;;;15.19;72.81
84022;BME280;74108;48.636;9.492;2023-11-19T12:04:48;97670.31;;;15.23;71.86
84022;BME280;74108;48.636;9.492;2023-11-19T12:07:16;97685.03;;;15.29;72.25
84022;BME280;74108;48.636;9.492;2023-11-19T12:10:28;97677.69;;;15.26;72.66
84022;BME280;74108;48.636;9.492;2023-11-19T12:12:28;97669.78;;;15.50;71.55
84022;BME280;74108;48.636;9.492;2023-11-19T12:17:37;97660.50;;;15.99;68.85
84022;BME280;74108;48.636;9.492;2023-11-19T12:20:07;97666.66;;;15.71;69.70
84022;BME280;74108;48.636;9.492;2023-11-19T12:22:39;97662.09;;;15.77;69.89
84022;BME280;74108;48.636;9.492;2023-11-19T12:25:06;97662.34;;;15.99;69.50
84022;BME280;74108;48.636;9.492;2023-11-19T12:27:32;97659.16;;;16.90;66.62
84022;BME280;74108;48.636;9.492;2023-11-19T12:29:59;97650.19;;;15.79;69.84
84022;BME280;74108;48.636;9.492;2023-11-19T12:32:25;97651.59;;;15.43;71.14
84022;BME280;74108;48.636;9.492;2023-11-19T12:34:50;97655.88;;;15.39;71.30
84022;BME280;74108;48.636;9.492;2023-11-19T12:37:15;97645.75;;;15.22;71.98
84022;BME280;74108;48.636;9.492;2023-11-19T12:39:41;97651.91;;;15.13;72.99
84022;BME280;74108;48.636;9.492;2023-11-19T12:42:06;97642.19;;;15.08;71.61
84022;BME280;74108;48.636;9.492;2023-11-19T12:44:32;97646.47;;;15.33;72.08
84022;BME280;74108;48.636;9.492;2023-11-19T12:47:05;97634.41;;;15.51;71.86
84022;BME280;74108;48.636;9.492;2023-11-19T12:49:36;97634.56;;;16.20;69.40
84022;BME280;74108;48.636;9.492;2023-11-19T12:52:02;97633.69;;;16.06;68.49
84022;BME280;74108;48.636;9.492;2023-11-19T12:54:36;97634.00;;;16.04;69.41
84022;BME280;74108;48.636;9.492;2023-11-19T12:57:02;97633.25;;;15.80;69.80
84022;BME280;74108;48.636;9.492;2023-11-19T12:59:28;97622.78;;;15.52;69.52
84022;BME280;74108;48.636;9.492;2023-11-19T13:01:57;97613.75;;;15.95;68.92
84022;BME280;74108;48.636;9.492;2023-11-19T13:04:27;97617.75;;;15.74;70.21
84022;BME280;74108;48.636;9.492;2023-11-19T13:06:53;97611.66;;;15.73;70.65
84022;BME280;74108;48.636;9.492;2023-11-19T13:09:23;97611.00;;;15.63;70.39
84022;BME280;74108;48.636;9.492;2023-11-19T13:11:50;97607.97;;;15.51;70.41
84022;BME280;74108;48.636;9.492;2023-11-19T13:14:15;97608.34;;;15.39;71.22
84022;BME280;74108;48.636;9.492;2023-11-19T13:16:42;97610.59;;;15.27;70.77
84022;BME280;74108;48.636;9.492;2023-11-19T13:19:08;97603.25;;;15.24;69.98
84022;BME280;74108;48.636;9.492;2023-11-19T13:21:34;97605.66;;;15.20;70.95
84022;BME280;74108;48.636;9.492;2023-11-19T13:23:59;97603.91;;;15.11;70.42